sensor_id;sensor_type;location;lat;lon;timestamp;P1;durP1;ratioP1;P2;durP2;ratioP2
25409;SDS011;13339;50.840;4.346;2023-12-07T00:00:34;45.07;;;21.47;;
25409;SDS011;13339;50.840;4.346;2023-12-07T00:02:59;50.00;;;22.57;;
25409;SDS011;13339;50.840;4.346;2023-12-07T00:05:25;46.70;;;20.73;;
25409;SDS011;13339;50.840;4.346;2023-12-07T00:07:51;43.77;;;20.93;;
25409;SDS011;13339;50.840;4.346;2023-12-07T00:10:16;49.17;;;22.53;;
25409;SDS011;13339;50.840;4.346;2023-12-07T00:12:42;45.33;;;21.27;;
25409;SDS011;13339;50.840;4.346;2023-12-07T00:15:07;46.30;;;20.80;;
25409;SDS011;13339;50.840;4.346;2023-12-07T00:17:33;44.07;;;21.70;;
25409;SDS011;13339;50.840;4.346;2023-12-07T00:19:59;48.60;;;21.70;;
25409;SDS011;13339;50.840;4.346;2023-12-07T00:22:25;44.27;;;21.37;;
25409;SDS011;13339;50.840;4.346;2023-12-07T00:24:51;45.77;;;21.07;;
25409;SDS011;13339;50.840;4.346;2023-12-07T00:27:17;46.27;;;21.13;;
25409;SDS011;13339;50.840;4.346;2023-12-07T00:29:43;43.33;;;21.47;;
25409;SDS011;13339;50.840;4.346;2023-12-07T00:32:09;46.77;;;21.00;;
25409;SDS011;13339;50.840;4.346;2023-12-07T00:34:34;38.30;;;19.40;;
25409;SDS011;13339;50.840;4.346;2023-12-07T00:37:00;42.97;;;19.97;;
25409;SDS011;13339;50.840;4.346;2023-12-07T00:39:26;37.87;;;18.73;;
25409;SDS011;13339;50.840;4.346;2023-12-07T00:41:53;42.40;;;21.43;;
25409;SDS011;13339;50.840;4.346;2023-12-07T00:44:18;42.20;;;19.57;;
25409;SDS011;13339;50.840;4.346;2023-12-07T00:46:44;39.13;;;19.77;;
25409;SDS011;13339;50.840;4.346;2023-12-07T00:49:10;36.77;;;19.33;;
25409;SDS011;13339;50.840;4.346;2023-12-07T00:51:35;40.97;;;19.80;;
25409;SDS011;13339;50.840;4.346;2023-12-07T00:54:01;39.33;;;19.27;;
25409;SDS011;13339;50.840;4.346;2023-12-07T00:56:27;44.57;;;19.07;;
25409;SDS011;13339;50.840;4.346;2023-12-07T00:58:52;45.50;;;20.13;;
25409;SDS011;13339;50.840;4.346;2023-12-07T01:01:18;41.80;;;18.17;;
25409;SDS011;13339;50.840;4.346;2023-12-07T01:03:43;39.63;;;17.87;;
25409;SDS011;13339;50.840;4.346;2023-12-07T01:06:09;36.73;;;18.57;;
25409;SDS011;13339;50.840;4.346;2023-12-07T01:08:36;41.27;;;19.47;;
25409;SDS011;13339;50.840;4.346;2023-12-07T01:11:02;42.60;;;19.97;;
25409;SDS011;13339;50.840;4.346;2023-12-07T01:13:29;38.93;;;19.00;;
25409;SDS011;13339;50.840;4.346;2023-12-07T01:15:55;41.00;;;20.03;;
25409;SDS011;13339;50.840;4.346;2023-12-07T01:18:21;36.00;;;19.10;;
25409;SDS011;13339;50.840;4.346;2023-12-07T01:20:47;36.77;;;19.50;;
25409;SDS011;13339;50.840;4.346;2023-12-07T01:23:13;40.40;;;19.20;;
25409;SDS011;13339;50.840;4.346;2023-12-07T01:25:39;41.20;;;20.17;;
25409;SDS011;13339;50.840;4.346;2023-12-07T01:28:05;42.23;;;21.37;;
25409;SDS011;13339;50.840;4.346;2023-12-07T01:30:30;41.67;;;20.57;;
25409;SDS011;13339;50.840;4.346;2023-12-07T01:32:56;45.97;;;20.70;;
25409;SDS011;13339;50.840;4.346;2023-12-07T01:35:22;41.93;;;20.13;;
25409;SDS011;13339;50.840;4.346;2023-12-07T01:37:48;38.30;;;19.67;;
25409;SDS011;13339;50.840;4.346;2023-12-07T01:40:13;38.80;;;20.43;;
25409;SDS011;13339;50.840;4.346;2023-12-07T01:42:40;40.07;;;19.77;;
25409;SDS011;13339;50.840;4.346;2023-12-07T01:45:14;35.83;;;18.43;;
25409;SDS011;13339;50.840;4.346;2023-12-07T01:47:40;38.10;;;19.17;;
25409;SDS011;13339;50.840;4.346;2023-12-07T01:50:06;38.03;;;19.37;;
25409;SDS011;13339;50.840;4.346;2023-12-07T01:52:35;40.33;;;19.57;;
25409;SDS011;13339;50.840;4.346;2023-12-07T01:55:06;43.73;;;21.37;;
25409;SDS011;13339;50.840;4.346;2023-12-07T01:57:34;38.23;;;19.40;;
25409;SDS011;13339;50.840;4.346;2023-12-07T02:00:01;36.67;;;18.33;;
25409;SDS011;13339;50.840;4.346;2023-12-07T02:02:27;40.23;;;19.90;;
25409;SDS011;13339;50.840;4.346;2023-12-07T02:04:52;37.00;;;19.17;;
25409;SDS011;13339;50.840;4.346;2023-12-07T02:07:19;34.63;;;18.90;;
25409;SDS011;13339;50.840;4.346;2023-12-07T02:09:44;36.93;;;19.43;;
25409;SDS011;13339;50.840;4.346;2023-12-07T02:12:10;37.43;;;19.13;;
25409;SDS011;13339;50.840;4.346;2023-12-07T02:14:36;35.40;;;18.13;;
25409;SDS011;13339;50.840;4.346;2023-12-07T02:17:07;29.33;;;16.93;;
25409;SDS011;13339;50.840;4.346;2023-12-07T02:20:01;37.93;;;18.30;;
25409;SDS011;13339;50.840;4.346;2023-12-07T02:22:38;32.33;;;17.23;;
25409;SDS011;13339;50.840;4.346;2023-12-07T02:25:09;30.30;;;16.30;;
25409;SDS011;13339;50.840;4.346;2023-12-07T02:27:39;31.50;;;16.70;;
25409;SDS011;13339;50.840;4.346;2023-12-07T02:30:07;30.83;;;16.50;;
25409;SDS011;13339;50.840;4.346;2023-12-07T02:32:34;28.87;;;15.77;;
25409;SDS011;13339;50.840;4.346;2023-12-07T02:35:02;30.53;;;16.27;;
25409;SDS011;13339;50.840;4.346;2023-12-07T02:37:32;29.37;;;15.50;;
25409;SDS011;13339;50.840;4.346;2023-12-07T02:40:03;29.77;;;15.60;;
25409;SDS011;13339;50.840;4.346;2023-12-07T02:42:30;26.77;;;15.27;;
25409;SDS011;13339;50.840;4.346;2023-12-07T02:44:57;27.53;;;15.03;;
25409;SDS011;13339;50.840;4.346;2023-12-07T02:47:23;30.13;;;15.53;;
25409;SDS011;13339;50.840;4.346;2023-12-07T02:49:49;27.30;;;14.17;;
25409;SDS011;13339;50.840;4.346;2023-12-07T02:52:15;31.50;;;15.17;;
25409;SDS011;13339;50.840;4.346;2023-12-07T02:54:40;27.07;;;16.03;;
25409;SDS011;13339;50.840;4.346;2023-12-07T02:57:06;26.53;;;14.13;;
25409;SDS011;13339;50.840;4.346;2023-12-07T02:59:32;23.23;;;14.20;;
25409;SDS011;13339;50.840;4.346;2023-12-07T03:01:57;30.47;;;14.57;;
25409;SDS011;13339;50.840;4.346;2023-12-07T03:04:23;26.90;;;14.57;;
25409;SDS011;13339;50.840;4.346;2023-12-07T03:06:49;28.10;;;14.63;;
25409;SDS011;13339;50.840;4.346;2023-12-07T03:09:14;27.77;;;14.60;;
25409;SDS011;13339;50.840;4.346;2023-12-07T03:11:40;29.07;;;14.23;;
25409;SDS011;13339;50.840;4.346;2023-12-07T03:14:05;28.90;;;14.63;;
25409;SDS011;13339;50.840;4.346;2023-12-07T03:16:32;30.00;;;15.23;;
25409;SDS011;13339;50.840;4.346;2023-12-07T03:19:00;35.10;;;15.40;;
25409;SDS011;13339;50.840;4.346;2023-12-07T03:21:26;27.33;;;14.80;;
25409;SDS011;13339;50.840;4.346;2023-12-07T03:23:52;29.63;;;15.23;;
25409;SDS011;13339;50.840;4.346;2023-12-07T03:26:17;31.00;;;16.07;;
25409;SDS011;13339;50.840;4.346;2023-12-07T03:28:43;28.83;;;14.70;;
25409;SDS011;13339;50.840;4.346;2023-12-07T03:31:09;26.63;;;14.50;;
25409;SDS011;13339;50.840;4.346;2023-12-07T03:33:34;28.47;;;15.27;;
25409;SDS011;13339;50.840;4.346;2023-12-07T03:36:00;29.07;;;13.70;;
25409;SDS011;13339;50.840;4.346;2023-12-07T03:38:27;22.53;;;12.57;;
25409;SDS011;13339;50.840;4.346;2023-12-07T03:40:52;24.17;;;14.10;;
25409;SDS011;13339;50.840;4.346;2023-12-07T03:43:18;24.70;;;13.67;;
25409;SDS011;13339;50.840;4.346;2023-12-07T03:45:45;22.50;;;13.80;;
25409;SDS011;13339;50.840;4.346;2023-12-07T03:48:11;25.77;;;13.00;;
25409;SDS011;13339;50.840;4.346;2023-12-07T03:50:37;26.13;;;13.20;;
25409;SDS011;13339;50.840;4.346;2023-12-07T03:53:03;23.13;;;13.53;;
25409;SDS011;13339;50.840;4.346;2023-12-07T03:55:28;24.80;;;13.37;;
25409;SDS011;13339;50.840;4.346;2023-12-07T03:57:54;24.53;;;14.30;;
25409;SDS011;13339;50.840;4.346;2023-12-07T04:00:19;20.20;;;13.60;;
25409;SDS011;13339;50.840;4.346;2023-12-07T04:02:46;27.50;;;14.27;;
25409;SDS011;13339;50.840;4.346;2023-12-07T04:05:12;28.10;;;14.17;;
25409;SDS011;13339;50.840;4.346;2023-12-07T04:07:38;29.37;;;14.93;;
25409;SDS011;13339;50.840;4.346;2023-12-07T04:10:04;26.87;;;14.73;;
25409;SDS011;13339;50.840;4.346;2023-12-07T04:12:31;29.30;;;15.20;;
25409;SDS011;13339;50.840;4.346;2023-12-07T04:14:57;27.03;;;14.73;;
25409;SDS011;13339;50.840;4.346;2023-12-07T04:17:22;21.97;;;14.40;;
25409;SDS011;13339;50.840;4.346;2023-12-07T04:19:48;27.47;;;15.17;;
25409;SDS011;13339;50.840;4.346;2023-12-07T04:22:14;24.33;;;13.50;;
25409;SDS011;13339;50.840;4.346;2023-12-07T04:24:39;26.03;;;14.90;;
25409;SDS011;13339;50.840;4.346;2023-12-07T04:27:05;26.07;;;15.17;;
25409;SDS011;13339;50.840;4.346;2023-12-07T04:29:30;24.80;;;13.87;;
25409;SDS011;13339;50.840;4.346;2023-12-07T04:31:56;24.97;;;13.63;;
25409;SDS011;13339;50.840;4.346;2023-12-07T04:34:22;24.60;;;13.30;;
25409;SDS011;13339;50.840;4.346;2023-12-07T04:36:47;23.43;;;12.37;;
25409;SDS011;13339;50.840;4.346;2023-12-07T04:39:14;23.90;;;12.67;;
25409;SDS011;13339;50.840;4.346;2023-12-07T04:41:40;20.43;;;13.40;;
25409;SDS011;13339;50.840;4.346;2023-12-07T04:44:05;21.57;;;12.40;;
25409;SDS011;13339;50.840;4.346;2023-12-07T04:46:31;21.67;;;12.90;;
25409;SDS011;13339;50.840;4.346;2023-12-07T04:48:56;18.93;;;12.97;;
25409;SDS011;13339;50.840;4.346;2023-12-07T04:51:22;24.50;;;14.30;;
25409;SDS011;13339;50.840;4.346;2023-12-07T04:53:48;22.57;;;13.73;;
25409;SDS011;13339;50.840;4.346;2023-12-07T04:56:13;24.40;;;13.93;;
25409;SDS011;13339;50.840;4.346;2023-12-07T04:58:39;23.60;;;13.33;;
25409;SDS011;13339;50.840;4.346;2023-12-07T05:01:04;24.50;;;13.73;;
25409;SDS011;13339;50.840;4.346;2023-12-07T05:03:31;25.97;;;14.70;;
25409;SDS011;13339;50.840;4.346;2023-12-07T05:05:56;24.30;;;13.23;;
25409;SDS011;13339;50.840;4.346;2023-12-07T05:08:22;21.23;;;12.70;;
25409;SDS011;13339;50.840;4.346;2023-12-07T05:10:48;22.60;;;12.97;;
25409;SDS011;13339;50.840;4.346;2023-12-07T05:13:13;26.10;;;13.53;;
25409;SDS011;13339;50.840;4.346;2023-12-07T05:15:39;22.23;;;13.20;;
25409;SDS011;13339;50.840;4.346;2023-12-07T05:18:05;21.83;;;13.33;;
25409;SDS011;13339;50.840;4.346;2023-12-07T05:20:30;26.00;;;14.07;;
25409;SDS011;13339;50.840;4.346;2023-12-07T05:22:56;24.97;;;13.43;;
25409;SDS011;13339;50.840;4.346;2023-12-07T05:25:21;24.90;;;13.30;;
25409;SDS011;13339;50.840;4.346;2023-12-07T05:27:47;24.77;;;13.60;;
25409;SDS011;13339;50.840;4.346;2023-12-07T05:30:13;24.90;;;13.07;;
25409;SDS011;13339;50.840;4.346;2023-12-07T05:32:39;21.00;;;12.47;;
25409;SDS011;13339;50.840;4.346;2023-12-07T05:35:05;24.33;;;13.80;;
25409;SDS011;13339;50.840;4.346;2023-12-07T05:37:32;22.97;;;12.60;;
25409;SDS011;13339;50.840;4.346;2023-12-07T05:39:57;23.67;;;12.87;;
25409;SDS011;13339;50.840;4.346;2023-12-07T05:42:23;21.60;;;13.33;;
25409;SDS011;13339;50.840;4.346;2023-12-07T05:44:49;22.53;;;12.33;;
25409;SDS011;13339;50.840;4.346;2023-12-07T05:47:14;23.07;;;13.30;;
25409;SDS011;13339;50.840;4.346;2023-12-07T05:49:40;21.17;;;12.97;;
25409;SDS011;13339;50.840;4.346;2023-12-07T05:52:05;21.97;;;12.87;;
25409;SDS011;13339;50.840;4.346;2023-12-07T05:54:31;23.37;;;13.17;;
25409;SDS011;13339;50.840;4.346;2023-12-07T05:56:57;19.57;;;11.87;;
25409;SDS011;13339;50.840;4.346;2023-12-07T05:59:22;23.43;;;13.00;;
25409;SDS011;13339;50.840;4.346;2023-12-07T06:01:50;26.67;;;13.27;;
25409;SDS011;13339;50.840;4.346;2023-12-07T06:04:16;22.33;;;12.63;;
25409;SDS011;13339;50.840;4.346;2023-12-07T06:06:42;22.33;;;12.77;;
25409;SDS011;13339;50.840;4.346;2023-12-07T06:09:08;23.47;;;12.70;;
25409;SDS011;13339;50.840;4.346;2023-12-07T06:11:33;20.80;;;12.10;;
25409;SDS011;13339;50.840;4.346;2023-12-07T06:14:01;23.23;;;12.17;;
25409;SDS011;13339;50.840;4.346;2023-12-07T06:16:27;22.20;;;13.23;;
25409;SDS011;13339;50.840;4.346;2023-12-07T06:18:52;21.70;;;12.03;;
25409;SDS011;13339;50.840;4.346;2023-12-07T06:21:18;26.03;;;13.10;;
25409;SDS011;13339;50.840;4.346;2023-12-07T06:23:43;21.33;;;11.97;;
25409;SDS011;13339;50.840;4.346;2023-12-07T06:26:11;21.63;;;13.10;;
25409;SDS011;13339;50.840;4.346;2023-12-07T06:28:37;20.77;;;13.43;;
25409;SDS011;13339;50.840;4.346;2023-12-07T06:31:06;24.67;;;13.07;;
25409;SDS011;13339;50.840;4.346;2023-12-07T06:33:34;25.87;;;11.67;;
25409;SDS011;13339;50.840;4.346;2023-12-07T06:36:00;20.93;;;11.67;;
25409;SDS011;13339;50.840;4.346;2023-12-07T06:38:28;19.83;;;11.80;;
25409;SDS011;13339;50.840;4.346;2023-12-07T06:40:53;23.77;;;13.10;;
25409;SDS011;13339;50.840;4.346;2023-12-07T06:43:19;21.27;;;11.67;;
25409;SDS011;13339;50.840;4.346;2023-12-07T06:45:45;20.33;;;11.43;;
25409;SDS011;13339;50.840;4.346;2023-12-07T06:48:10;23.23;;;11.40;;
25409;SDS011;13339;50.840;4.346;2023-12-07T06:50:36;22.17;;;11.13;;
25409;SDS011;13339;50.840;4.346;2023-12-07T06:53:02;18.67;;;11.17;;
25409;SDS011;13339;50.840;4.346;2023-12-07T06:55:28;22.87;;;12.50;;
25409;SDS011;13339;50.840;4.346;2023-12-07T06:57:53;18.70;;;12.43;;
25409;SDS011;13339;50.840;4.346;2023-12-07T07:00:19;20.60;;;11.43;;
25409;SDS011;13339;50.840;4.346;2023-12-07T07:02:45;19.30;;;11.77;;
25409;SDS011;13339;50.840;4.346;2023-12-07T07:05:10;22.27;;;11.37;;
25409;SDS011;13339;50.840;4.346;2023-12-07T07:07:36;22.03;;;11.30;;
25409;SDS011;13339;50.840;4.346;2023-12-07T07:10:02;22.43;;;11.73;;
25409;SDS011;13339;50.840;4.346;2023-12-07T07:12:28;22.03;;;11.60;;
25409;SDS011;13339;50.840;4.346;2023-12-07T07:14:54;23.53;;;12.23;;
25409;SDS011;13339;50.840;4.346;2023-12-07T07:17:20;28.50;;;12.03;;
25409;SDS011;13339;50.840;4.346;2023-12-07T07:19:45;18.43;;;11.27;;
25409;SDS011;13339;50.840;4.346;2023-12-07T07:22:11;20.00;;;11.63;;
25409;SDS011;13339;50.840;4.346;2023-12-07T07:24:37;19.73;;;11.80;;
25409;SDS011;13339;50.840;4.346;2023-12-07T07:27:03;22.27;;;11.07;;
25409;SDS011;13339;50.840;4.346;2023-12-07T07:29:29;19.57;;;10.73;;
25409;SDS011;13339;50.840;4.346;2023-12-07T07:31:54;23.83;;;10.63;;
25409;SDS011;13339;50.840;4.346;2023-12-07T07:34:21;21.43;;;11.33;;
25409;SDS011;13339;50.840;4.346;2023-12-07T07:36:47;25.13;;;11.97;;
25409;SDS011;13339;50.840;4.346;2023-12-07T07:39:14;16.77;;;10.40;;
25409;SDS011;13339;50.840;4.346;2023-12-07T07:41:40;21.13;;;11.57;;
25409;SDS011;13339;50.840;4.346;2023-12-07T07:44:06;22.57;;;10.93;;
25409;SDS011;13339;50.840;4.346;2023-12-07T07:46:32;20.10;;;10.53;;
25409;SDS011;13339;50.840;4.346;2023-12-07T07:48:58;24.40;;;11.67;;
25409;SDS011;13339;50.840;4.346;2023-12-07T07:51:23;22.10;;;11.67;;
25409;SDS011;13339;50.840;4.346;2023-12-07T07:53:49;21.00;;;11.47;;
25409;SDS011;13339;50.840;4.346;2023-12-07T07:56:14;24.87;;;11.50;;
25409;SDS011;13339;50.840;4.346;2023-12-07T07:58:40;22.70;;;11.80;;
25409;SDS011;13339;50.840;4.346;2023-12-07T08:01:06;21.30;;;11.60;;
25409;SDS011;13339;50.840;4.346;2023-12-07T08:03:32;20.03;;;11.20;;
25409;SDS011;13339;50.840;4.346;2023-12-07T08:05:57;21.87;;;11.23;;
25409;SDS011;13339;50.840;4.346;2023-12-07T08:08:23;25.70;;;11.80;;
25409;SDS011;13339;50.840;4.346;2023-12-07T08:10:51;24.17;;;11.70;;
25409;SDS011;13339;50.840;4.346;2023-12-07T08:13:16;21.43;;;11.30;;
25409;SDS011;13339;50.840;4.346;2023-12-07T08:15:42;20.37;;;11.83;;
25409;SDS011;13339;50.840;4.346;2023-12-07T08:18:08;21.80;;;11.70;;
25409;SDS011;13339;50.840;4.346;2023-12-07T08:20:34;20.93;;;11.50;;
25409;SDS011;13339;50.840;4.346;2023-12-07T08:23:00;18.30;;;10.47;;
25409;SDS011;13339;50.840;4.346;2023-12-07T08:25:25;17.10;;;10.20;;
25409;SDS011;13339;50.840;4.346;2023-12-07T08:27:51;19.33;;;10.57;;
25409;SDS011;13339;50.840;4.346;2023-12-07T08:30:16;24.13;;;11.93;;
25409;SDS011;13339;50.840;4.346;2023-12-07T08:32:43;25.40;;;12.30;;
25409;SDS011;13339;50.840;4.346;2023-12-07T08:35:09;19.77;;;11.20;;
25409;SDS011;13339;50.840;4.346;2023-12-07T08:37:36;20.93;;;10.87;;
25409;SDS011;13339;50.840;4.346;2023-12-07T08:40:03;18.93;;;10.27;;
25409;SDS011;13339;50.840;4.346;2023-12-07T08:42:29;22.47;;;11.07;;
25409;SDS011;13339;50.840;4.346;2023-12-07T08:44:56;24.43;;;11.23;;
25409;SDS011;13339;50.840;4.346;2023-12-07T08:47:22;19.27;;;10.43;;
25409;SDS011;13339;50.840;4.346;2023-12-07T08:49:48;17.93;;;10.70;;
25409;SDS011;13339;50.840;4.346;2023-12-07T08:52:14;25.93;;;11.27;;
25409;SDS011;13339;50.840;4.346;2023-12-07T08:54:39;17.87;;;10.03;;
25409;SDS011;13339;50.840;4.346;2023-12-07T08:57:05;24.53;;;11.10;;
25409;SDS011;13339;50.840;4.346;2023-12-07T08:59:32;19.90;;;10.20;;
25409;SDS011;13339;50.840;4.346;2023-12-07T09:01:58;22.57;;;9.97;;
25409;SDS011;13339;50.840;4.346;2023-12-07T09:04:23;24.03;;;10.80;;
25409;SDS011;13339;50.840;4.346;2023-12-07T09:06:49;22.13;;;9.70;;
25409;SDS011;13339;50.840;4.346;2023-12-07T09:09:15;19.17;;;10.27;;
25409;SDS011;13339;50.840;4.346;2023-12-07T09:11:40;14.60;;;9.40;;
25409;SDS011;13339;50.840;4.346;2023-12-07T09:14:06;21.10;;;10.23;;
25409;SDS011;13339;50.840;4.346;2023-12-07T09:16:31;19.33;;;10.23;;
25409;SDS011;13339;50.840;4.346;2023-12-07T09:18:57;17.00;;;10.60;;
25409;SDS011;13339;50.840;4.346;2023-12-07T09:21:23;14.40;;;9.37;;
25409;SDS011;13339;50.840;4.346;2023-12-07T09:23:48;18.30;;;10.00;;
25409;SDS011;13339;50.840;4.346;2023-12-07T09:26:14;19.80;;;9.77;;
25409;SDS011;13339;50.840;4.346;2023-12-07T09:28:40;15.17;;;9.63;;
25409;SDS011;13339;50.840;4.346;2023-12-07T09:31:05;18.07;;;9.63;;
25409;SDS011;13339;50.840;4.346;2023-12-07T09:33:32;18.97;;;9.87;;
25409;SDS011;13339;50.840;4.346;2023-12-07T09:35:57;19.27;;;9.97;;
25409;SDS011;13339;50.840;4.346;2023-12-07T09:38:23;20.27;;;9.13;;
25409;SDS011;13339;50.840;4.346;2023-12-07T09:40:52;23.07;;;9.73;;
25409;SDS011;13339;50.840;4.346;2023-12-07T09:43:18;18.87;;;9.80;;
25409;SDS011;13339;50.840;4.346;2023-12-07T09:45:44;15.63;;;9.63;;
25409;SDS011;13339;50.840;4.346;2023-12-07T09:48:10;14.53;;;9.73;;
25409;SDS011;13339;50.840;4.346;2023-12-07T09:50:36;16.33;;;8.97;;
25409;SDS011;13339;50.840;4.346;2023-12-07T09:53:02;20.27;;;10.47;;
25409;SDS011;13339;50.840;4.346;2023-12-07T09:55:27;14.23;;;9.50;;
25409;SDS011;13339;50.840;4.346;2023-12-07T09:57:53;13.67;;;8.80;;
25409;SDS011;13339;50.840;4.346;2023-12-07T10:00:22;13.33;;;9.07;;
25409;SDS011;13339;50.840;4.346;2023-12-07T10:02:47;18.33;;;8.87;;
25409;SDS011;13339;50.840;4.346;2023-12-07T10:05:14;22.23;;;9.60;;
25409;SDS011;13339;50.840;4.346;2023-12-07T10:07:42;17.47;;;8.80;;
25409;SDS011;13339;50.840;4.346;2023-12-07T10:10:09;16.77;;;8.37;;
25409;SDS011;13339;50.840;4.346;2023-12-07T10:12:46;13.80;;;8.83;;
25409;SDS011;13339;50.840;4.346;2023-12-07T10:15:23;14.23;;;8.67;;
25409;SDS011;13339;50.840;4.346;2023-12-07T10:17:54;14.67;;;8.40;;
25409;SDS011;13339;50.840;4.346;2023-12-07T10:20:22;14.50;;;8.73;;
25409;SDS011;13339;50.840;4.346;2023-12-07T10:23:07;18.40;;;8.53;;
25409;SDS011;13339;50.840;4.346;2023-12-07T10:25:39;19.67;;;9.03;;
25409;SDS011;13339;50.840;4.346;2023-12-07T10:28:09;13.47;;;8.97;;
25409;SDS011;13339;50.840;4.346;2023-12-07T10:30:42;16.73;;;8.20;;
25409;SDS011;13339;50.840;4.346;2023-12-07T10:33:09;12.57;;;7.53;;
25409;SDS011;13339;50.840;4.346;2023-12-07T10:35:38;15.60;;;7.77;;
25409;SDS011;13339;50.840;4.346;2023-12-07T10:38:05;15.67;;;8.10;;
25409;SDS011;13339;50.840;4.346;2023-12-07T10:40:31;15.77;;;8.10;;
25409;SDS011;13339;50.840;4.346;2023-12-07T10:42:57;16.60;;;8.43;;
25409;SDS011;13339;50.840;4.346;2023-12-07T10:45:24;15.17;;;8.07;;
25409;SDS011;13339;50.840;4.346;2023-12-07T10:47:51;14.83;;;7.43;;
25409;SDS011;13339;50.840;4.346;2023-12-07T10:50:22;12.97;;;7.80;;
25409;SDS011;13339;50.840;4.346;2023-12-07T10:52:52;15.13;;;7.60;;
25409;SDS011;13339;50.840;4.346;2023-12-07T10:55:20;17.70;;;8.20;;
25409;SDS011;13339;50.840;4.346;2023-12-07T10:57:49;11.57;;;7.80;;
25409;SDS011;13339;50.840;4.346;2023-12-07T11:00:18;16.50;;;8.43;;
25409;SDS011;13339;50.840;4.346;2023-12-07T11:02:44;13.07;;;7.47;;
25409;SDS011;13339;50.840;4.346;2023-12-07T11:05:11;11.40;;;7.23;;
25409;SDS011;13339;50.840;4.346;2023-12-07T11:07:57;12.17;;;7.17;;
25409;SDS011;13339;50.840;4.346;2023-12-07T11:10:41;10.00;;;6.87;;
25409;SDS011;13339;50.840;4.346;2023-12-07T11:13:20;9.93;;;6.97;;
25409;SDS011;13339;50.840;4.346;2023-12-07T11:15:52;14.07;;;6.60;;
25409;SDS011;13339;50.840;4.346;2023-12-07T11:18:18;14.10;;;7.23;;
25409;SDS011;13339;50.840;4.346;2023-12-07T11:20:45;10.57;;;6.27;;
25409;SDS011;13339;50.840;4.346;2023-12-07T11:23:15;8.57;;;6.40;;
25409;SDS011;13339;50.840;4.346;2023-12-07T11:25:43;15.17;;;7.17;;
25409;SDS011;13339;50.840;4.346;2023-12-07T11:28:10;15.50;;;7.10;;
25409;SDS011;13339;50.840;4.346;2023-12-07T11:30:37;12.37;;;6.27;;
25409;SDS011;13339;50.840;4.346;2023-12-07T11:33:06;16.83;;;6.80;;
25409;SDS011;13339;50.840;4.346;2023-12-07T11:35:32;13.67;;;7.30;;
25409;SDS011;13339;50.840;4.346;2023-12-07T11:38:08;12.90;;;7.17;;
25409;SDS011;13339;50.840;4.346;2023-12-07T11:40:42;17.23;;;7.97;;
25409;SDS011;13339;50.840;4.346;2023-12-07T11:43:18;16.03;;;7.90;;
25409;SDS011;13339;50.840;4.346;2023-12-07T11:46:04;10.73;;;6.60;;
25409;SDS011;13339;50.840;4.346;2023-12-07T11:48:31;11.60;;;7.00;;
25409;SDS011;13339;50.840;4.346;2023-12-07T11:51:01;10.50;;;6.57;;
25409;SDS011;13339;50.840;4.346;2023-12-07T11:53:30;14.80;;;7.03;;
25409;SDS011;13339;50.840;4.346;2023-12-07T11:55:56;8.33;;;6.40;;
25409;SDS011;13339;50.840;4.346;2023-12-07T11:58:29;11.00;;;6.63;;
25409;SDS011;13339;50.840;4.346;2023-12-07T12:00:55;10.40;;;5.87;;
25409;SDS011;13339;50.840;4.346;2023-12-07T12:03:25;10.60;;;6.27;;
25409;SDS011;13339;50.840;4.346;2023-12-07T12:05:52;16.17;;;6.73;;
25409;SDS011;13339;50.840;4.346;2023-12-07T12:08:19;13.50;;;7.63;;
25409;SDS011;13339;50.840;4.346;2023-12-07T12:10:45;10.23;;;6.20;;
25409;SDS011;13339;50.840;4.346;2023-12-07T12:13:14;9.73;;;6.17;;
25409;SDS011;13339;50.840;4.346;2023-12-07T12:15:40;16.53;;;6.50;;
25409;SDS011;13339;50.840;4.346;2023-12-07T12:18:07;9.17;;;6.20;;
25409;SDS011;13339;50.840;4.346;2023-12-07T12:20:33;9.00;;;6.07;;
25409;SDS011;13339;50.840;4.346;2023-12-07T12:22:59;13.47;;;7.50;;
25409;SDS011;13339;50.840;4.346;2023-12-07T12:25:26;12.77;;;6.23;;
25409;SDS011;13339;50.840;4.346;2023-12-07T12:27:57;12.57;;;6.17;;
25409;SDS011;13339;50.840;4.346;2023-12-07T12:30:24;11.40;;;7.20;;
25409;SDS011;13339;50.840;4.346;2023-12-07T12:32:50;14.23;;;6.93;;
25409;SDS011;13339;50.840;4.346;2023-12-07T12:35:16;13.17;;;7.20;;
25409;SDS011;13339;50.840;4.346;2023-12-07T12:37:43;9.40;;;6.13;;
25409;SDS011;13339;50.840;4.346;2023-12-07T12:40:10;11.63;;;6.77;;
25409;SDS011;13339;50.840;4.346;2023-12-07T12:42:36;15.17;;;7.10;;
25409;SDS011;13339;50.840;4.346;2023-12-07T12:45:07;11.20;;;6.37;;
25409;SDS011;13339;50.840;4.346;2023-12-07T12:47:33;14.40;;;7.60;;
25409;SDS011;13339;50.840;4.346;2023-12-07T12:50:02;13.73;;;6.50;;
25409;SDS011;13339;50.840;4.346;2023-12-07T12:52:31;12.17;;;7.23;;
25409;SDS011;13339;50.840;4.346;2023-12-07T12:54:58;11.63;;;6.07;;
25409;SDS011;13339;50.840;4.346;2023-12-07T12:57:24;11.40;;;5.73;;
25409;SDS011;13339;50.840;4.346;2023-12-07T12:59:50;10.73;;;6.43;;
25409;SDS011;13339;50.840;4.346;2023-12-07T13:02:16;13.77;;;6.50;;
25409;SDS011;13339;50.840;4.346;2023-12-07T13:04:43;12.47;;;5.90;;
25409;SDS011;13339;50.840;4.346;2023-12-07T13:07:10;11.13;;;5.70;;
25409;SDS011;13339;50.840;4.346;2023-12-07T13:09:37;15.37;;;5.80;;
25409;SDS011;13339;50.840;4.346;2023-12-07T13:12:03;10.87;;;5.70;;
25409;SDS011;13339;50.840;4.346;2023-12-07T13:14:29;10.43;;;5.40;;
25409;SDS011;13339;50.840;4.346;2023-12-07T13:16:54;10.67;;;6.40;;
25409;SDS011;13339;50.840;4.346;2023-12-07T13:19:20;9.20;;;5.47;;
25409;SDS011;13339;50.840;4.346;2023-12-07T13:21:46;13.17;;;5.73;;
25409;SDS011;13339;50.840;4.346;2023-12-07T13:24:12;10.43;;;5.60;;
25409;SDS011;13339;50.840;4.346;2023-12-07T13:26:40;9.00;;;5.40;;
25409;SDS011;13339;50.840;4.346;2023-12-07T13:29:06;10.97;;;5.80;;
25409;SDS011;13339;50.840;4.346;2023-12-07T13:31:33;9.67;;;5.60;;
25409;SDS011;13339;50.840;4.346;2023-12-07T13:33:59;13.43;;;5.57;;
25409;SDS011;13339;50.840;4.346;2023-12-07T13:36:26;11.27;;;5.70;;
25409;SDS011;13339;50.840;4.346;2023-12-07T13:38:54;11.40;;;5.80;;
25409;SDS011;13339;50.840;4.346;2023-12-07T13:41:20;11.57;;;5.53;;
25409;SDS011;13339;50.840;4.346;2023-12-07T13:43:47;11.47;;;6.23;;
25409;SDS011;13339;50.840;4.346;2023-12-07T13:46:16;9.17;;;5.10;;
25409;SDS011;13339;50.840;4.346;2023-12-07T13:48:42;8.87;;;5.23;;
25409;SDS011;13339;50.840;4.346;2023-12-07T13:51:08;10.27;;;5.60;;
25409;SDS011;13339;50.840;4.346;2023-12-07T13:53:34;9.10;;;5.93;;
25409;SDS011;13339;50.840;4.346;2023-12-07T13:56:00;8.73;;;5.43;;
25409;SDS011;13339;50.840;4.346;2023-12-07T13:58:26;9.77;;;6.00;;
25409;SDS011;13339;50.840;4.346;2023-12-07T14:00:51;12.73;;;5.60;;
25409;SDS011;13339;50.840;4.346;2023-12-07T14:03:17;14.13;;;5.90;;
25409;SDS011;13339;50.840;4.346;2023-12-07T14:05:42;10.27;;;5.50;;
25409;SDS011;13339;50.840;4.346;2023-12-07T14:08:08;7.87;;;5.57;;
25409;SDS011;13339;50.840;4.346;2023-12-07T14:10:34;9.27;;;5.50;;
25409;SDS011;13339;50.840;4.346;2023-12-07T14:13:00;10.77;;;5.37;;
25409;SDS011;13339;50.840;4.346;2023-12-07T14:15:26;13.33;;;6.17;;
25409;SDS011;13339;50.840;4.346;2023-12-07T14:17:52;12.20;;;5.70;;
25409;SDS011;13339;50.840;4.346;2023-12-07T14:20:17;13.10;;;7.23;;
25409;SDS011;13339;50.840;4.346;2023-12-07T14:22:43;12.33;;;6.43;;